createdAt,value
2022-10-23T00:04:25.302Z,13.99
2022-10-23T00:09:29.020Z,14.02
2022-10-23T00:14:34.114Z,13.97
2022-10-23T00:19:37.745Z,13.99
2022-10-23T00:24:41.474Z,13.92
2022-10-23T00:29:46.856Z,13.89
2022-10-23T00:34:50.557Z,13.89
2022-10-23T00:39:54.418Z,13.86
2022-10-23T00:45:18.853Z,13.89
2022-10-23T00:50:25.991Z,13.93
2022-10-23T00:55:31.529Z,13.90
2022-10-23T01:00:45.562Z,13.92
2022-10-23T01:05:53.458Z,13.92
2022-10-23T01:11:06.072Z,13.90
2022-10-23T01:16:18.001Z,13.86
2022-10-23T01:21:29.702Z,13.71
2022-10-23T01:26:55.429Z,13.61
2022-10-23T01:32:08.108Z,13.57
2022-10-23T01:37:16.831Z,13.63
2022-10-23T01:42:26.156Z,13.56
2022-10-23T01:47:36.287Z,13.62
2022-10-23T01:52:40.860Z,13.62
2022-10-23T01:57:46.762Z,13.65
2022-10-23T02:02:53.484Z,13.64
2022-10-23T02:07:58.895Z,13.61
2022-10-23T02:13:09.214Z,13.55
2022-10-23T02:18:20.024Z,13.50
2022-10-23T02:23:30.416Z,13.45
2022-10-23T02:28:39.961Z,13.46
2022-10-23T02:33:48.151Z,13.52
2022-10-23T02:38:51.811Z,13.50
2022-10-23T02:44:18.425Z,13.52
2022-10-23T02:49:31.491Z,13.40
2022-10-23T02:54:55.627Z,13.46
2022-10-23T03:00:04.560Z,13.47
2022-10-23T03:05:13.343Z,13.46
2022-10-23T03:10:17.257Z,13.50
2022-10-23T03:15:20.971Z,13.45
2022-10-23T03:20:30.816Z,13.49
2022-10-23T03:25:35.675Z,13.48
2022-10-23T03:30:39.357Z,13.38
2022-10-23T03:35:44.463Z,13.40
2022-10-23T03:40:50.463Z,13.40
2022-10-23T03:45:54.098Z,13.41
2022-10-23T03:51:00.045Z,13.45
2022-10-23T03:56:03.923Z,13.45
2022-10-23T04:01:07.668Z,13.43
2022-10-23T04:06:14.040Z,13.43
2022-10-23T04:11:18.023Z,13.41
2022-10-23T04:16:22.128Z,13.41
2022-10-23T04:21:27.203Z,13.46
2022-10-23T04:26:32.008Z,13.39
2022-10-23T04:31:35.741Z,13.31
2022-10-23T04:36:40.795Z,13.26
2022-10-23T04:41:44.867Z,13.26
2022-10-23T04:46:48.622Z,13.19
2022-10-23T04:51:53.810Z,13.14
2022-10-23T04:56:59.758Z,13.15
2022-10-23T05:02:04.281Z,13.12
2022-10-23T05:07:09.513Z,13.07
2022-10-23T05:12:13.466Z,12.98
2022-10-23T05:17:21.366Z,13.00
2022-10-23T05:22:29.647Z,13.00
2022-10-23T05:27:33.296Z,13.00
2022-10-23T05:32:39.338Z,13.00
2022-10-23T05:37:48.050Z,13.02
2022-10-23T05:42:53.761Z,12.98
2022-10-23T05:48:05.807Z,12.99
2022-10-23T05:53:23.259Z,12.97
2022-10-23T05:58:27.047Z,13.00
2022-10-23T06:03:31.673Z,13.00
2022-10-23T06:08:36.937Z,12.98
2022-10-23T06:13:43.708Z,12.99
2022-10-23T06:18:47.865Z,13.03
2022-10-23T06:23:53.649Z,13.04
2022-10-23T06:28:59.687Z,12.96
2022-10-23T06:34:04.412Z,12.96
2022-10-23T06:39:10.284Z,12.95
2022-10-23T06:44:17.346Z,12.94
2022-10-23T06:49:22.603Z,12.97
2022-10-23T06:54:28.134Z,12.98
2022-10-23T06:59:35.816Z,12.99
2022-10-23T07:04:41.181Z,13.01
2022-10-23T07:09:48.674Z,13.07
2022-10-23T07:14:53.479Z,13.12
2022-10-23T07:19:57.901Z,13.14
2022-10-23T07:25:02.981Z,13.22
2022-10-23T07:30:08.632Z,13.28
2022-10-23T07:40:20.900Z,13.35
2022-10-23T07:45:25.420Z,13.48
2022-10-23T07:50:29.770Z,13.52
2022-10-23T07:55:35.106Z,13.54
2022-10-23T08:00:42.244Z,13.64
2022-10-23T08:05:47.268Z,13.70
2022-10-23T08:10:54.567Z,13.84
2022-10-23T08:15:58.776Z,13.93
2022-10-23T08:21:05.592Z,14.04
2022-10-23T08:26:12.202Z,14.06
2022-10-23T08:31:18.315Z,14.14
2022-10-23T08:36:27.064Z,14.19
2022-10-23T08:41:36.097Z,14.13
2022-10-23T08:46:43.712Z,14.20
2022-10-23T08:51:53.441Z,14.23
2022-10-23T08:57:04.664Z,14.29
2022-10-23T09:02:17.497Z,14.36
2022-10-23T09:07:34.053Z,14.38
2022-10-23T09:12:39.878Z,14.43
2022-10-23T09:17:45.020Z,14.49
2022-10-23T09:22:50.199Z,14.59
2022-10-23T09:27:59.083Z,14.65
2022-10-23T09:33:16.252Z,14.71
2022-10-23T09:38:29.050Z,14.75
2022-10-23T09:43:34.211Z,14.84
2022-10-23T09:48:38.360Z,14.89
2022-10-23T09:53:50.215Z,14.97
2022-10-23T09:58:58.299Z,15.05
2022-10-23T10:04:02.067Z,15.16
2022-10-23T10:09:11.981Z,15.29
2022-10-23T10:14:36.799Z,15.43
2022-10-23T10:20:03.954Z,15.50
2022-10-23T10:25:18.291Z,15.66
2022-10-23T10:30:25.100Z,15.81
2022-10-23T10:35:41.410Z,15.94
2022-10-23T10:40:52.860Z,16.12
2022-10-23T10:46:04.635Z,16.29
2022-10-23T10:51:14.156Z,16.39
2022-10-23T10:56:21.733Z,16.62
2022-10-23T11:01:33.259Z,16.82
2022-10-23T11:06:38.859Z,16.84
2022-10-23T11:11:42.717Z,16.89
2022-10-23T11:16:50.730Z,16.93
2022-10-23T11:21:59.264Z,17.04
2022-10-23T11:27:20.269Z,17.16
2022-10-23T11:32:43.931Z,17.32
2022-10-23T11:37:59.360Z,17.72
2022-10-23T11:43:03.121Z,17.96
2022-10-23T11:48:23.163Z,18.40
2022-10-23T11:53:38.988Z,18.44
2022-10-23T11:58:45.259Z,18.42
2022-10-23T12:03:54.217Z,18.22
2022-10-23T12:09:02.496Z,18.25
2022-10-23T12:14:06.537Z,18.15
2022-10-23T12:19:21.859Z,18.21
2022-10-23T12:24:42.512Z,18.17
2022-10-23T12:30:13.763Z,18.14
2022-10-23T12:35:47.898Z,18.09
2022-10-23T12:40:53.497Z,18.16
2022-10-23T12:46:02.006Z,18.29
2022-10-23T12:51:07.234Z,18.33
2022-10-23T12:56:14.656Z,18.40
2022-10-23T13:01:27.019Z,18.44
2022-10-23T13:06:33.458Z,18.56
2022-10-23T13:11:38.082Z,18.54
2022-10-23T13:16:42.244Z,18.60
2022-10-23T13:21:52.182Z,18.72
2022-10-23T13:26:56.934Z,18.83
2022-10-23T13:32:11.385Z,18.77
2022-10-23T13:37:27.575Z,18.86
2022-10-23T13:42:31.441Z,18.93
2022-10-23T13:47:35.205Z,19.15
2022-10-23T13:52:40.276Z,19.25
2022-10-23T13:57:44.418Z,19.28
2022-10-23T14:02:48.468Z,19.19
2022-10-23T14:07:53.634Z,19.13
2022-10-23T14:12:57.371Z,19.04
2022-10-23T14:18:04.555Z,18.96
2022-10-23T14:23:12.560Z,18.87
2022-10-23T14:28:16.235Z,18.74
2022-10-23T14:33:19.992Z,18.67
2022-10-23T14:38:25.174Z,18.63
2022-10-23T14:43:28.916Z,18.51
2022-10-23T14:48:32.627Z,18.54
2022-10-23T14:53:37.659Z,18.49
2022-10-23T14:58:42.461Z,18.38
2022-10-23T15:03:46.299Z,18.35
2022-10-23T15:08:52.317Z,18.47
2022-10-23T15:13:56.708Z,18.35
2022-10-23T15:19:00.803Z,18.29
2022-10-23T15:24:06.585Z,18.24
2022-10-23T15:29:11.189Z,18.21
2022-10-23T15:34:17.213Z,18.18
2022-10-23T15:39:24.870Z,18.13
2022-10-23T15:44:30.440Z,18.03
2022-10-23T15:49:34.180Z,18.00
2022-10-23T15:54:39.419Z,17.93
2022-10-23T15:59:43.198Z,17.87
2022-10-23T16:04:46.860Z,17.94
2022-10-23T16:09:52.208Z,17.90
2022-10-23T16:14:55.891Z,17.90
2022-10-23T16:19:59.679Z,17.89
2022-10-23T16:25:05.099Z,17.87
2022-10-23T16:30:13.518Z,17.87
2022-10-23T16:35:17.408Z,17.80
2022-10-23T16:40:23.576Z,17.76
2022-10-23T16:46:01.668Z,17.75
2022-10-23T16:51:07.529Z,17.66
2022-10-23T16:56:15.134Z,17.67
2022-10-23T17:01:21.295Z,17.65
2022-10-23T17:06:27.060Z,17.62
2022-10-23T17:11:33.814Z,17.62
2022-10-23T17:16:39.946Z,17.57
2022-10-23T17:21:44.210Z,17.54
2022-10-23T17:26:49.494Z,17.44
2022-10-23T17:31:53.264Z,17.36
2022-10-23T17:36:57.222Z,17.37
2022-10-23T17:42:02.407Z,17.29
2022-10-23T17:47:06.261Z,17.21
2022-10-23T17:52:14.361Z,17.08
2022-10-23T17:57:19.355Z,17.07
2022-10-23T18:02:23.208Z,17.03
2022-10-23T18:07:27.038Z,17.08
2022-10-23T18:12:32.117Z,17.05
2022-10-23T18:17:35.950Z,17.02
2022-10-23T18:22:39.694Z,17.05
2022-10-23T18:27:44.962Z,17.07
2022-10-23T18:32:48.782Z,17.12
2022-10-23T18:37:52.448Z,17.13
2022-10-23T18:42:57.581Z,17.19
2022-10-23T18:48:01.708Z,17.28
2022-10-23T18:53:05.889Z,17.33
2022-10-23T18:58:10.983Z,17.40
2022-10-23T19:03:15.545Z,17.23
2022-10-23T19:08:19.247Z,17.05
2022-10-23T19:13:24.320Z,16.85
2022-10-23T19:18:28.046Z,16.76
2022-10-23T19:23:32.034Z,16.58
2022-10-23T19:28:40.911Z,16.40
2022-10-23T19:33:44.679Z,16.07
2022-10-23T19:38:48.324Z,16.01
2022-10-23T19:43:53.522Z,15.89
2022-10-23T19:48:57.240Z,15.84
2022-10-23T19:54:01.045Z,15.75
2022-10-23T19:59:06.512Z,15.80
2022-10-23T20:04:10.309Z,15.80
2022-10-23T20:09:14.122Z,15.72
2022-10-23T20:14:20.334Z,15.73
2022-10-23T20:19:24.092Z,15.60
2022-10-23T20:24:27.870Z,15.56
2022-10-23T20:29:32.875Z,15.55
2022-10-23T20:34:36.605Z,15.53
2022-10-23T20:39:40.316Z,15.57
2022-10-23T20:44:45.520Z,15.60
2022-10-23T20:49:49.150Z,15.69
2022-10-23T20:54:52.818Z,15.72
2022-10-23T20:59:58.135Z,15.76
2022-10-23T21:05:01.770Z,15.79
2022-10-23T21:10:06.463Z,15.82
2022-10-23T21:15:12.233Z,15.86
2022-10-23T21:20:17.107Z,15.90
2022-10-23T21:25:20.832Z,15.90
2022-10-23T21:30:25.827Z,15.89
2022-10-23T21:35:30.195Z,15.87
2022-10-23T21:40:33.954Z,15.86
2022-10-23T21:45:39.008Z,15.78
2022-10-23T21:50:42.770Z,15.66
2022-10-23T21:55:46.477Z,15.60
2022-10-23T22:00:51.596Z,15.50
2022-10-23T22:05:55.244Z,15.44
2022-10-23T22:10:59.004Z,15.46
2022-10-23T22:16:04.708Z,15.42
2022-10-23T22:21:10.637Z,15.34
2022-10-23T22:26:22.767Z,15.32
2022-10-23T22:31:30.135Z,15.33
2022-10-23T22:36:36.506Z,15.35
2022-10-23T22:41:40.308Z,15.23
2022-10-23T22:46:46.484Z,15.20
2022-10-23T22:51:50.134Z,15.17
2022-10-23T22:56:54.038Z,15.17
2022-10-23T23:01:59.120Z,15.18
2022-10-23T23:07:02.768Z,15.18
2022-10-23T23:12:06.695Z,15.20
2022-10-23T23:17:12.337Z,15.23
2022-10-23T23:22:16.085Z,15.26
2022-10-23T23:27:19.816Z,15.28
2022-10-23T23:32:25.087Z,15.31
2022-10-23T23:37:28.887Z,15.31
2022-10-23T23:42:32.716Z,15.28
2022-10-23T23:47:37.794Z,15.30
2022-10-23T23:52:41.506Z,15.23
2022-10-23T23:57:45.488Z,15.26
